Time;durP1;ratioP1;P1;durP2;ratioP2;P2;SDS_P1;SDS_P2;PMS_P1;PMS_P2;Temp;Humidity;BMP_temperature;BMP_pressure;BME280_temperature;BME280_humidity;BME280_pressure;Samples;Min_cycle;Max_cycle;Signal;HPM_P1;HPM_P2
2021/05/13 00:02:45;;;;;;;;;;;8.90;99.90;;;;;;10451147;28;20015;-68
2021/05/13 00:07:47;;;;;;;;;;;8.80;99.90;;;;;;10451034;28;19929;-68
2021/05/13 00:12:52;;;;;;;;;;;8.70;99.90;;;;;;10438933;28;19929;-68
2021/05/13 00:17:56;;;;;;;;;;;8.60;99.90;;;;;;10424744;28;20012;-68
2021/05/13 00:22:58;;;;;;;;;;;8.50;99.90;;;;;;10449532;28;19947;-68
2021/05/13 00:28:00;;;;;;;;;;;8.50;99.90;;;;;;10450066;28;19932;-68
2021/05/13 00:33:02;;;;;;;;;;;8.40;99.90;;;;;;10449246;28;19925;-68
2021/05/13 00:38:05;;;;;;;;;;;8.40;99.90;;;;;;10450072;28;19979;-68
2021/05/13 00:43:06;;;;;;;;;;;8.40;99.90;;;;;;10448809;28;20019;-68
2021/05/13 00:48:15;;;;;;;;;;;8.40;99.90;;;;;;10448732;28;19925;-68
2021/05/13 00:53:17;;;;;;;;;;;8.30;99.90;;;;;;10448539;28;20004;-68
2021/05/13 00:58:19;;;;;;;;;;;8.20;99.90;;;;;;10448576;28;20372;-68
2021/05/13 01:03:21;;;;;;;;;;;8.20;99.90;;;;;;10448119;28;19964;-68
2021/05/13 01:08:23;;;;;;;;;;;8.30;99.90;;;;;;10447847;28;20020;-68
2021/05/13 01:13:26;;;;;;;;;;;8.30;99.90;;;;;;10447968;28;20019;-68
2021/05/13 01:18:28;;;;;;;;;;;8.20;99.90;;;;;;10447830;28;19983;-68
2021/05/13 01:23:30;;;;;;;;;;;8.20;99.90;;;;;;10446320;28;19964;-68
2021/05/13 01:28:32;;;;;;;;;;;8.00;99.90;;;;;;10447358;28;20024;-68
2021/05/13 01:33:33;;;;;;;;;;;8.00;99.90;;;;;;10446877;28;20423;-68
2021/05/13 01:38:35;;;;;;;;;;;8.00;99.90;;;;;;10445619;28;19925;-68
2021/05/13 01:43:37;;;;;;;;;;;7.90;99.90;;;;;;10446661;28;20849;-68
2021/05/13 01:48:39;;;;;;;;;;;8.00;99.90;;;;;;10446143;28;19975;-68
2021/05/13 01:53:41;;;;;;;;;;;8.00;99.90;;;;;;10447046;28;20369;-68
2021/05/13 01:58:44;;;;;;;;;;;8.10;99.90;;;;;;10446596;28;19982;-68
2021/05/13 02:03:46;;;;;;;;;;;8.20;99.90;;;;;;10450176;28;20023;-68
2021/05/13 02:08:48;;;;;;;;;;;8.30;99.90;;;;;;10429133;28;20015;-68
2021/05/13 02:13:50;;;;;;;;;;;8.50;99.90;;;;;;10452005;28;20007;-68
2021/05/13 02:18:51;;;;;;;;;;;8.30;99.90;;;;;;10452500;28;20008;-68
2021/05/13 02:23:53;;;;;;;;;;;8.40;99.90;;;;;;10452379;28;19974;-68
2021/05/13 02:28:55;;;;;;;;;;;8.30;99.90;;;;;;10452877;28;19975;-68
2021/05/13 02:33:57;;;;;;;;;;;8.20;99.90;;;;;;10448225;28;19972;-68
2021/05/13 02:38:59;;;;;;;;;;;8.30;99.90;;;;;;10460151;28;20285;-68
2021/05/13 02:44:01;;;;;;;;;;;8.30;99.90;;;;;;10461282;28;20019;-67
2021/05/13 02:49:03;;;;;;;;;;;8.30;99.90;;;;;;10459829;28;19968;-68
2021/05/13 02:54:05;;;;;;;;;;;8.40;99.90;;;;;;10461031;28;20360;-69
2021/05/13 02:59:08;;;;;;;;;;;8.40;99.90;;;;;;10460909;28;20007;-68
2021/05/13 03:04:10;;;;;;;;;;;8.40;99.90;;;;;;10457111;28;20023;-68
2021/05/13 03:09:12;;;;;;;;;;;8.50;99.90;;;;;;10455095;28;19929;-68
2021/05/13 03:14:14;;;;;;;;;;;8.60;99.90;;;;;;10452526;28;20020;-68
2021/05/13 03:19:22;;;;;;;;;;;8.60;99.90;;;;;;10452808;28;20447;-67
2021/05/13 03:24:35;;;;;;;;;;;8.60;99.90;;;;;;10453172;28;19964;-68
2021/05/13 03:29:36;;;;;;;;;;;8.60;99.90;;;;;;10451311;28;19925;-68
2021/05/13 03:34:38;;;;;;;;;;;8.60;99.90;;;;;;10452131;28;19935;-68
2021/05/13 03:39:40;;;;;;;;;;;8.60;99.90;;;;;;10451176;28;19982;-68
2021/05/13 03:44:44;;;;;;;;;;;8.60;99.90;;;;;;10451815;28;19964;-68
2021/05/13 03:49:46;;;;;;;;;;;8.60;99.90;;;;;;10451725;28;19924;-68
2021/05/13 03:54:48;;;;;;;;;;;8.60;99.90;;;;;;10452023;28;19929;-67
2021/05/13 03:59:52;;;;;;;;;;;8.60;99.90;;;;;;10451199;28;20020;-68
2021/05/13 04:04:54;;;;;;;;;;;8.70;99.90;;;;;;10451153;28;20040;-68
2021/05/13 04:09:56;;;;;;;;;;;8.70;99.90;;;;;;10451298;28;20321;-68
2021/05/13 04:14:59;;;;;;;;;;;8.70;99.90;;;;;;10451000;28;19924;-68
2021/05/13 04:20:01;;;;;;;;;;;8.70;99.90;;;;;;10450546;28;19931;-68
2021/05/13 04:25:03;;;;;;;;;;;8.70;99.90;;;;;;10450460;28;20469;-68
2021/05/13 04:30:06;;;;;;;;;;;8.90;99.90;;;;;;10450185;28;20353;-68
2021/05/13 04:35:08;;;;;;;;;;;8.80;99.90;;;;;;10450107;28;20015;-68
2021/05/13 04:40:10;;;;;;;;;;;8.60;99.90;;;;;;10449589;28;19986;-68
2021/05/13 04:45:12;;;;;;;;;;;8.70;99.90;;;;;;10449511;28;19929;-68
2021/05/13 04:50:14;;;;;;;;;;;8.70;99.90;;;;;;10449304;28;20374;-68
2021/05/13 04:55:16;;;;;;;;;;;8.80;99.90;;;;;;10449156;28;19971;-68
2021/05/13 05:00:18;;;;;;;;;;;8.90;99.90;;;;;;10447318;28;19929;-68
2021/05/13 05:05:20;;;;;;;;;;;9.10;99.90;;;;;;10448905;28;19925;-68
2021/05/13 05:10:22;;;;;;;;;;;9.30;99.90;;;;;;10448524;28;20023;-68
2021/05/13 05:15:24;;;;;;;;;;;9.30;99.90;;;;;;10448448;28;20372;-68
2021/05/13 05:20:25;;;;;;;;;;;9.30;99.90;;;;;;10448008;28;20012;-68
2021/05/13 05:25:27;;;;;;;;;;;9.60;99.90;;;;;;10447973;28;20324;-68
2021/05/13 05:30:33;;;;;;;;;;;9.60;99.90;;;;;;10447470;28;19924;-68
2021/05/13 05:35:36;;;;;;;;;;;9.50;99.90;;;;;;10447737;28;20008;-68
2021/05/13 05:40:37;;;;;;;;;;;9.50;99.90;;;;;;10446941;28;20012;-68
2021/05/13 05:45:39;;;;;;;;;;;9.40;99.90;;;;;;10446862;28;20475;-68
2021/05/13 05:50:42;;;;;;;;;;;9.40;99.90;;;;;;10446883;28;20388;-68
2021/05/13 05:55:43;;;;;;;;;;;9.50;99.90;;;;;;10447010;28;19963;-68
2021/05/13 06:00:45;;;;;;;;;;;9.60;99.90;;;;;;10446571;28;19964;-68
2021/05/13 06:05:47;;;;;;;;;;;9.70;99.90;;;;;;10446897;28;19932;-68
2021/05/13 06:10:49;;;;;;;;;;;9.80;99.90;;;;;;10445698;28;19931;-68
2021/05/13 06:15:51;;;;;;;;;;;9.80;99.90;;;;;;10446578;28;19924;-68
2021/05/13 06:20:53;;;;;;;;;;;9.90;99.90;;;;;;10446009;28;20385;-68
2021/05/13 06:25:55;;;;;;;;;;;10.00;99.90;;;;;;10446229;28;19935;-68
2021/05/13 06:30:56;;;;;;;;;;;10.10;99.90;;;;;;10446125;28;19960;-68
2021/05/13 06:35:58;;;;;;;;;;;10.10;99.90;;;;;;10445849;28;19928;-68
2021/05/13 06:41:01;;;;;;;;;;;10.20;99.90;;;;;;10444182;28;19980;-69
2021/05/13 06:46:04;;;;;;;;;;;10.20;99.90;;;;;;10445319;28;19929;-68
2021/05/13 06:51:06;;;;;;;;;;;10.30;99.90;;;;;;10445691;28;20598;-68
2021/05/13 06:56:08;;;;;;;;;;;10.50;99.90;;;;;;10445715;28;20066;-68
2021/05/13 07:01:10;;;;;;;;;;;10.30;99.90;;;;;;10444998;28;20028;-68
2021/05/13 07:06:12;;;;;;;;;;;10.40;99.90;;;;;;10445570;28;19951;-69
2021/05/13 07:11:13;;;;;;;;;;;10.30;99.90;;;;;;10445055;28;19987;-68
2021/05/13 07:16:15;;;;;;;;;;;10.00;99.90;;;;;;10403743;28;20459;-69
2021/05/13 07:21:18;;;;;;;;;;;10.40;99.90;;;;;;10439140;28;20427;-68
2021/05/13 07:26:20;;;;;;;;;;;10.70;99.90;;;;;;10452367;28;19924;-68
2021/05/13 07:31:22;;;;;;;;;;;10.80;99.90;;;;;;10452739;28;19929;-68
2021/05/13 07:36:24;;;;;;;;;;;11.00;99.90;;;;;;10452320;28;19975;-68
2021/05/13 07:41:26;;;;;;;;;;;11.20;99.90;;;;;;10452117;28;19968;-68
2021/05/13 07:46:33;;;;;;;;;;;11.40;99.90;;;;;;10451349;28;19925;-68
2021/05/13 07:51:35;;;;;;;;;;;11.50;99.90;;;;;;10433973;28;19929;-68
2021/05/13 07:56:37;;;;;;;;;;;11.70;99.90;;;;;;10451837;28;20004;-68
2021/05/13 08:01:39;;;;;;;;;;;12.00;99.90;;;;;;10451421;28;20019;-68
2021/05/13 08:06:41;;;;;;;;;;;12.50;99.90;;;;;;10450987;28;20293;-68
2021/05/13 08:11:43;;;;;;;;;;;13.30;99.90;;;;;;10449844;28;19925;-69
2021/05/13 08:16:44;;;;;;;;;;;14.10;99.90;;;;;;10450588;28;20304;-68
2021/05/13 08:21:46;;;;;;;;;;;15.30;99.90;;;;;;10450115;28;19925;-69
2021/05/13 08:26:48;;;;;;;;;;;15.00;99.90;;;;;;10450458;28;20008;-68
2021/05/13 08:31:51;;;;;;;;;;;15.10;99.90;;;;;;10450320;28;19971;-68
2021/05/13 08:36:54;;;;;;;;;;;15.60;99.90;;;;;;10449230;28;19925;-68
2021/05/13 08:42:00;;;;;;;;;;;15.90;99.90;;;;;;10449674;28;19986;-68
2021/05/13 08:47:02;;;;;;;;;;;16.40;99.90;;;;;;10449334;28;19924;-69
2021/05/13 08:52:09;;;;;;;;;;;17.20;99.90;;;;;;10448987;28;20425;-69
2021/05/13 08:57:12;;;;;;;;;;;17.50;99.90;;;;;;10448929;28;19964;-69
2021/05/13 09:02:14;;;;;;;;;;;17.60;99.90;;;;;;10447732;28;20008;-68
2021/05/13 09:07:21;;;;;;;;;;;18.00;99.90;;;;;;10447973;28;20284;-69
2021/05/13 09:12:25;;;;;;;;;;;18.30;99.90;;;;;;10448602;28;19925;-69
2021/05/13 09:17:27;;;;;;;;;;;18.50;99.90;;;;;;10448315;28;19975;-69
2021/05/13 09:22:30;;;;;;;;;;;18.30;98.70;;;;;;10448616;28;19925;-69
2021/05/13 09:27:42;;;;;;;;;;;18.80;99.90;;;;;;10446998;28;20016;-69
2021/05/13 09:32:54;;;;;;;;;;;19.00;95.30;;;;;;10447816;28;19932;-69
2021/05/13 09:37:57;;;;;;;;;;;19.00;94.90;;;;;;10447251;28;19990;-69
2021/05/13 09:43:08;;;;;;;;;;;20.00;91.90;;;;;;10446112;28;20047;-69
2021/05/13 09:48:10;;;;;;;;;;;20.50;85.70;;;;;;10446870;28;20341;-69
2021/05/13 09:53:18;;;;;;;;;;;20.00;83.60;;;;;;10447554;28;20050;-69
2021/05/13 09:58:24;;;;;;;;;;;18.90;87.50;;;;;;10446544;28;20011;-69
2021/05/13 10:03:25;;;;;;;;;;;19.10;90.30;;;;;;10446785;28;20471;-69
2021/05/13 10:08:27;;;;;;;;;;;20.10;84.80;;;;;;10446081;28;19970;-69
2021/05/13 10:13:31;;;;;;;;;;;20.60;79.90;;;;;;10446502;28;20637;-69
2021/05/13 10:18:36;;;;;;;;;;;20.90;72.60;;;;;;10446433;28;20039;-69
2021/05/13 10:23:38;;;;;;;;;;;21.50;66.20;;;;;;10446370;28;20011;-69
2021/05/13 10:28:40;;;;;;;;;;;21.70;59.40;;;;;;10446247;28;20009;-69
2021/05/13 10:33:47;;;;;;;;;;;21.60;58.40;;;;;;10445847;28;19935;-69
2021/05/13 10:39:04;;;;;;;;;;;22.10;53.20;;;;;;10477170;28;19972;-70
2021/05/13 10:44:09;;;;;;;;;;;22.40;53.60;;;;;;10474436;28;20007;-70
2021/05/13 10:49:14;;;;;;;;;;;21.70;54.70;;;;;;10443832;28;19928;-69
2021/05/13 10:54:28;;;;;;;;;;;20.80;53.10;;;;;;10444212;28;19928;-69
2021/05/13 10:59:29;;;;;;;;;;;20.10;53.40;;;;;;10459148;28;20393;-69
2021/05/13 11:04:32;;;;;;;;;;;19.60;56.20;;;;;;10457546;28;19935;-69
2021/05/13 11:09:41;;;;;;;;;;;19.70;50.90;;;;;;10470936;28;19972;-69
2021/05/13 11:15:08;;;;;;;;;;;20.20;55.60;;;;;;10491904;28;19924;-69
2021/05/13 11:20:25;;;;;;;;;;;20.30;50.60;;;;;;10468622;28;19925;-69
2021/05/13 11:25:33;;;;;;;;;;;20.50;53.50;;;;;;10460372;28;19928;-69
2021/05/13 11:30:35;;;;;;;;;;;20.80;47.40;;;;;;10462163;28;19933;-69
2021/05/13 11:35:37;;;;;;;;;;;21.70;46.70;;;;;;10450852;28;19933;-69
2021/05/13 11:40:39;;;;;;;;;;;21.70;46.00;;;;;;10473946;28;20453;-69
2021/05/13 11:45:41;;;;;;;;;;;21.10;47.00;;;;;;10461123;28;19994;-69
2021/05/13 11:50:43;;;;;;;;;;;20.90;48.30;;;;;;10450379;28;20028;-69
2021/05/13 11:55:45;;;;;;;;;;;20.30;51.80;;;;;;10449902;28;19975;-69
2021/05/13 12:00:47;;;;;;;;;;;19.60;53.30;;;;;;10450914;28;20012;-69
2021/05/13 12:05:49;;;;;;;;;;;19.60;52.60;;;;;;10449683;28;19965;-69
2021/05/13 12:10:51;;;;;;;;;;;20.00;49.60;;;;;;10449998;28;20401;-69
2021/05/13 12:16:05;;;;;;;;;;;20.30;46.60;;;;;;10448383;28;19994;-69
2021/05/13 12:21:08;;;;;;;;;;;20.60;53.10;;;;;;10475485;28;20037;-69
2021/05/13 12:26:12;;;;;;;;;;;20.30;54.90;;;;;;10478867;28;19935;-69
2021/05/13 12:31:46;;;;;;;;;;;20.40;55.20;;;;;;10447572;28;19935;-69
2021/05/13 12:36:49;;;;;;;;;;;20.70;53.60;;;;;;10426389;28;19984;-68
2021/05/13 12:41:51;;;;;;;;;;;20.30;55.50;;;;;;10447357;28;19929;-69
2021/05/13 12:46:58;;;;;;;;;;;20.10;55.90;;;;;;10468980;28;19932;-69
2021/05/13 12:52:09;;;;;;;;;;;20.50;55.10;;;;;;10447259;28;20367;-69
2021/05/13 12:57:16;;;;;;;;;;;20.80;52.40;;;;;;10486737;28;19950;-69
2021/05/13 13:02:25;;;;;;;;;;;20.60;53.90;;;;;;10476339;28;19964;-69
2021/05/13 13:07:43;;;;;;;;;;;20.60;51.00;;;;;;10471308;28;20345;-69
2021/05/13 13:12:44;;;;;;;;;;;20.40;49.40;;;;;;10446855;28;19933;-68
2021/05/13 13:17:59;;;;;;;;;;;20.40;48.40;;;;;;10446541;28;19955;-63
2021/05/13 13:23:19;;;;;;;;;;;20.30;49.30;;;;;;10433775;28;20040;-64
2021/05/13 13:28:21;;;;;;;;;;;20.20;47.70;;;;;;10444672;28;19924;-64
2021/05/13 13:33:23;;;;;;;;;;;20.10;48.00;;;;;;10433525;28;20020;-64
2021/05/13 13:38:25;;;;;;;;;;;20.20;48.00;;;;;;10420521;28;20314;-64
2021/05/13 13:43:28;;;;;;;;;;;20.30;47.90;;;;;;10431930;28;20448;-64
2021/05/13 13:48:32;;;;;;;;;;;20.30;47.80;;;;;;10455515;28;20011;-64
2021/05/13 13:53:34;;;;;;;;;;;20.00;47.90;;;;;;10445779;28;20453;-64
2021/05/13 13:58:35;;;;;;;;;;;19.90;48.80;;;;;;10446000;28;20405;-64
2021/05/13 14:03:37;;;;;;;;;;;19.80;48.30;;;;;;10446257;28;20016;-64
2021/05/13 14:08:39;;;;;;;;;;;19.70;47.10;;;;;;10445355;28;19982;-64
2021/05/13 14:13:41;;;;;;;;;;;19.70;46.10;;;;;;10445892;28;20015;-64
2021/05/13 14:18:43;;;;;;;;;;;19.60;46.70;;;;;;10446272;28;19928;-64
2021/05/13 14:23:45;;;;;;;;;;;19.50;47.30;;;;;;10445167;28;20330;-64
2021/05/13 14:28:46;;;;;;;;;;;19.40;47.70;;;;;;10446190;28;19924;-63
2021/05/13 14:33:48;;;;;;;;;;;19.40;47.20;;;;;;10445052;28;20019;-64
2021/05/13 14:38:50;;;;;;;;;;;19.60;47.70;;;;;;10445532;28;20337;-64
2021/05/13 14:43:52;;;;;;;;;;;19.70;47.40;;;;;;10445717;28;19972;-64
2021/05/13 14:49:07;;;;;;;;;;;19.70;48.00;;;;;;10445716;28;19931;-64
2021/05/13 14:54:09;;;;;;;;;;;19.90;48.40;;;;;;10444557;28;20035;-64
2021/05/13 14:59:11;;;;;;;;;;;20.30;47.20;;;;;;10445386;28;20008;-64
2021/05/13 15:04:13;;;;;;;;;;;20.70;46.10;;;;;;10443973;28;19964;-64
2021/05/13 15:09:15;;;;;;;;;;;21.00;44.70;;;;;;10444000;28;20023;-64
2021/05/13 15:14:17;;;;;;;;;;;21.20;45.90;;;;;;10445161;28;20332;-64
2021/05/13 15:19:19;;;;;;;;;;;20.90;45.60;;;;;;10444940;28;19994;-64
2021/05/13 15:24:22;;;;;;;;;;;20.50;47.00;;;;;;10445016;28;20266;-64
2021/05/13 15:29:24;;;;;;;;;;;20.40;46.50;;;;;;10444414;28;20486;-64
2021/05/13 15:34:26;;;;;;;;;;;19.80;46.80;;;;;;10443572;28;19967;-64
2021/05/13 15:39:27;;;;;;;;;;;19.40;48.10;;;;;;10444995;28;19925;-64
2021/05/13 15:44:29;;;;;;;;;;;19.30;48.30;;;;;;10448827;28;20047;-64
2021/05/13 15:49:31;;;;;;;;;;;19.00;49.20;;;;;;10450826;28;20381;-64
2021/05/13 15:54:33;;;;;;;;;;;18.80;49.90;;;;;;10451899;28;19951;-64
2021/05/13 15:59:35;;;;;;;;;;;18.60;51.20;;;;;;10451373;28;19971;-64
2021/05/13 16:04:37;;;;;;;;;;;18.40;51.30;;;;;;10450934;28;19943;-64
2021/05/13 16:09:38;;;;;;;;;;;18.10;52.30;;;;;;10451458;28;19928;-64
2021/05/13 16:14:41;;;;;;;;;;;18.00;52.40;;;;;;10450417;28;19932;-64
2021/05/13 16:19:42;;;;;;;;;;;17.90;53.60;;;;;;10450171;28;19939;-63
2021/05/13 16:24:44;;;;;;;;;;;17.80;53.80;;;;;;10449911;28;20484;-64
2021/05/13 16:29:46;;;;;;;;;;;17.60;54.20;;;;;;10450486;28;20388;-64
2021/05/13 16:34:48;;;;;;;;;;;17.40;55.30;;;;;;10449917;28;19967;-64
2021/05/13 16:39:50;;;;;;;;;;;17.30;55.90;;;;;;10450032;28;20023;-64
2021/05/13 16:44:51;;;;;;;;;;;17.20;56.70;;;;;;10464368;28;19931;-64
2021/05/13 16:49:53;;;;;;;;;;;17.00;57.30;;;;;;10455115;28;20456;-64
2021/05/13 16:54:55;;;;;;;;;;;16.80;57.60;;;;;;10430406;28;20024;-63
2021/05/13 16:59:57;;;;;;;;;;;16.60;58.10;;;;;;10440143;28;20063;-64
2021/05/13 17:05:03;;;;;;;;;;;16.40;59.10;;;;;;10439864;28;20016;-64
2021/05/13 17:10:05;;;;;;;;;;;16.20;60.50;;;;;;10431085;28;19926;-64
2021/05/13 17:15:08;;;;;;;;;;;15.90;61.30;;;;;;10465097;28;20695;-64
2021/05/13 17:20:11;;;;;;;;;;;15.80;62.90;;;;;;10460085;28;19925;-64
2021/05/13 17:25:13;;;;;;;;;;;15.50;64.80;;;;;;10410886;28;20316;-64
2021/05/13 17:30:15;;;;;;;;;;;15.40;66.30;;;;;;10436965;28;19932;-64
2021/05/13 17:35:17;;;;;;;;;;;15.30;68.40;;;;;;10448461;28;19978;-64
2021/05/13 17:40:20;;;;;;;;;;;15.20;71.40;;;;;;10435647;28;19925;-64
2021/05/13 17:45:22;;;;;;;;;;;15.10;74.60;;;;;;10460165;28;20366;-64
2021/05/13 17:50:24;;;;;;;;;;;14.80;80.30;;;;;;10449443;28;19931;-64
2021/05/13 17:55:26;;;;;;;;;;;14.70;85.80;;;;;;10431285;28;20032;-64
2021/05/13 18:00:30;;;;;;;;;;;14.60;90.60;;;;;;10446174;28;20920;-64
2021/05/13 18:05:31;;;;;;;;;;;14.60;93.30;;;;;;10443384;28;20016;-63
2021/05/13 18:10:35;;;;;;;;;;;14.50;94.20;;;;;;10429786;28;19936;-64
2021/05/13 18:15:36;;;;;;;;;;;14.10;96.80;;;;;;10414542;28;19963;-64
2021/05/13 18:20:39;;;;;;;;;;;14.20;98.40;;;;;;10427299;28;19928;-64
2021/05/13 18:25:41;;;;;;;;;;;14.30;99.90;;;;;;10463456;28;20019;-64
2021/05/13 18:30:44;;;;;;;;;;;14.10;99.90;;;;;;10438694;28;19986;-63
2021/05/13 18:35:45;;;;;;;;;;;13.90;99.90;;;;;;10445058;28;19998;-64
2021/05/13 18:40:47;;;;;;;;;;;13.90;99.90;;;;;;10429767;28;20424;-64
2021/05/13 18:45:51;;;;;;;;;;;13.90;99.90;;;;;;10473342;28;20016;-63
2021/05/13 18:50:53;;;;;;;;;;;13.70;99.90;;;;;;10448853;28;20357;-64
2021/05/13 18:55:55;;;;;;;;;;;13.60;99.90;;;;;;10449649;28;19991;-63
2021/05/13 19:00:56;;;;;;;;;;;13.60;99.90;;;;;;10446512;28;20016;-64
2021/05/13 19:05:58;;;;;;;;;;;13.50;99.90;;;;;;10436122;28;20008;-64
2021/05/13 19:11:01;;;;;;;;;;;13.20;99.90;;;;;;10437528;28;20281;-64
2021/05/13 19:16:03;;;;;;;;;;;13.20;99.90;;;;;;10445639;28;19979;-64
2021/05/13 19:21:06;;;;;;;;;;;13.10;99.90;;;;;;10423280;28;19945;-64
2021/05/13 19:26:08;;;;;;;;;;;13.10;99.90;;;;;;10440092;28;19924;-71
2021/05/13 19:31:59;;;;;;;;;;;13.20;99.90;;;;;;10451988;28;20008;-71
2021/05/13 19:36:32;;;;;;;;;;;13.30;99.90;;;;;;10454230;28;19964;-70
2021/05/13 19:41:35;;;;;;;;;;;13.30;99.90;;;;;;10452224;28;19968;-71
2021/05/13 19:46:36;;;;;;;;;;;13.40;99.90;;;;;;10450793;28;19994;-71
2021/05/13 19:51:39;;;;;;;;;;;13.50;99.90;;;;;;10451063;28;19925;-71
2021/05/13 19:56:40;;;;;;;;;;;13.50;99.90;;;;;;10445356;28;20011;-71
2021/05/13 20:01:44;;;;;;;;;;;13.50;99.90;;;;;;10438298;28;20030;-70
2021/05/13 20:06:59;;;;;;;;;;;13.40;99.90;;;;;;10450908;28;19925;-71
2021/05/13 20:12:06;;;;;;;;;;;13.40;99.90;;;;;;10421890;28;20012;-71
2021/05/13 20:17:10;;;;;;;;;;;13.30;99.90;;;;;;10448870;28;19990;-71
2021/05/13 20:22:15;;;;;;;;;;;13.40;99.90;;;;;;10449292;28;20012;-71
2021/05/13 20:27:25;;;;;;;;;;;13.30;99.90;;;;;;10448948;28;19929;-71
2021/05/13 20:32:30;;;;;;;;;;;13.40;99.90;;;;;;10447098;28;19929;-71
2021/05/13 20:37:34;;;;;;;;;;;13.30;99.90;;;;;;10448980;28;19924;-71
2021/05/13 20:42:36;;;;;;;;;;;13.30;99.90;;;;;;10448573;28;20012;-71
2021/05/13 20:47:41;;;;;;;;;;;13.20;99.90;;;;;;10447853;28;20361;-71
2021/05/13 21:03:15;;;;;;;;;;;13.00;99.90;;;;;;10448288;28;20015;-71
2021/05/13 21:08:26;;;;;;;;;;;13.00;99.90;;;;;;10448073;28;19976;-71
2021/05/13 21:24:31;;;;;;;;;;;12.80;99.90;;;;;;10447439;28;20507;-71
2021/05/13 21:29:21;;;;;;;;;;;12.90;99.90;;;;;;10447308;28;19938;-71
2021/05/13 21:34:23;;;;;;;;;;;12.80;99.90;;;;;;10447145;28;19968;-71
2021/05/13 21:39:25;;;;;;;;;;;12.80;99.90;;;;;;10447624;28;19929;-71
2021/05/13 21:44:27;;;;;;;;;;;12.80;99.90;;;;;;10447546;28;19974;-71
2021/05/13 21:49:30;;;;;;;;;;;12.70;99.90;;;;;;10447295;28;20011;-71
2021/05/13 21:54:37;;;;;;;;;;;12.60;99.90;;;;;;10446743;28;20007;-71
2021/05/13 21:59:39;;;;;;;;;;;12.60;99.90;;;;;;10447290;28;19933;-71
2021/05/13 22:04:42;;;;;;;;;;;12.40;99.90;;;;;;10447020;28;19964;-71
2021/05/13 22:09:49;;;;;;;;;;;12.40;99.90;;;;;;10445381;28;20019;-71
2021/05/13 22:14:52;;;;;;;;;;;12.40;99.90;;;;;;10446662;28;20003;-71
2021/05/13 22:19:56;;;;;;;;;;;12.50;99.90;;;;;;10446092;28;20035;-71
2021/05/13 22:30:09;;;;;;;;;;;12.50;99.90;;;;;;10446385;28;20011;-71
2021/05/13 22:35:11;;;;;;;;;;;12.50;99.90;;;;;;10446154;28;20519;-71
2021/05/13 22:40:14;;;;;;;;;;;12.60;99.90;;;;;;10445904;28;19963;-71
2021/05/13 22:45:17;;;;;;;;;;;12.60;99.90;;;;;;10445762;28;19929;-71
2021/05/13 22:50:21;;;;;;;;;;;12.60;99.90;;;;;;10445379;28;20016;-71
2021/05/13 22:55:26;;;;;;;;;;;12.50;99.90;;;;;;10452134;28;19929;-71
2021/05/13 23:00:28;;;;;;;;;;;12.50;99.90;;;;;;10453514;28;19924;-71
2021/05/13 23:05:30;;;;;;;;;;;12.50;99.90;;;;;;10453604;28;19971;-71
2021/05/13 23:10:34;;;;;;;;;;;12.50;99.90;;;;;;10452810;28;19967;-71
2021/05/13 23:15:36;;;;;;;;;;;12.40;99.90;;;;;;10453439;28;20399;-71
2021/05/13 23:20:38;;;;;;;;;;;12.20;99.90;;;;;;10453614;28;19935;-71
2021/05/13 23:25:42;;;;;;;;;;;12.10;99.90;;;;;;10452616;28;20423;-71
2021/05/13 23:30:44;;;;;;;;;;;12.10;99.90;;;;;;10453475;28;20019;-71
2021/05/13 23:35:46;;;;;;;;;;;12.20;99.90;;;;;;10452748;28;19929;-70
2021/05/13 23:40:48;;;;;;;;;;;12.20;99.90;;;;;;10452158;28;19961;-71
2021/05/13 23:45:49;;;;;;;;;;;12.10;99.90;;;;;;10452508;28;20117;-71
2021/05/13 23:50:51;;;;;;;;;;;12.10;99.90;;;;;;10452128;28;19979;-71
2021/05/13 23:55:53;;;;;;;;;;;12.10;99.90;;;;;;10452045;28;20028;-71
